Time;durP1;ratioP1;P1;durP2;ratioP2;P2;SDS_P1;SDS_P2;PMS_P1;PMS_P2;Temp;Humidity;BMP_temperature;BMP_pressure;BME280_temperature;BME280_humidity;BME280_pressure;Samples;Min_cycle;Max_cycle;Signal;HPM_P1;HPM_P2
2022/06/26 00:01:45;;;;;;;10.02;2.05;;;26.70;94.30;;;;;;5061388;28;20296;-57
2022/06/26 00:04:12;;;;;;;2.88;1.20;;;26.70;94.20;;;;;;5062102;28;20032;-57
2022/06/26 00:06:38;;;;;;;6.10;1.55;;;26.70;94.10;;;;;;5060653;28;20071;-56
2022/06/26 00:09:05;;;;;;;11.18;1.40;;;26.70;94.20;;;;;;5060935;28;20025;-57
2022/06/26 00:11:32;;;;;;;1.73;0.82;;;26.60;94.10;;;;;;5059545;28;20099;-57
2022/06/26 00:13:59;;;;;;;5.40;1.63;;;26.60;94.10;;;;;;5060476;28;20048;-55
2022/06/26 00:16:26;;;;;;;3.65;1.38;;;26.60;93.90;;;;;;5061649;28;20039;-56
2022/06/26 00:18:52;;;;;;;3.88;2.10;;;26.60;93.90;;;;;;5061822;28;20047;-58
2022/06/26 00:21:19;;;;;;;5.13;2.92;;;26.60;93.80;;;;;;5062827;28;20025;-55
2022/06/26 00:23:45;;;;;;;9.55;2.65;;;26.60;93.90;;;;;;5062526;28;20312;-56
2022/06/26 00:26:12;;;;;;;58.72;5.25;;;26.60;94.00;;;;;;5062875;28;20333;-60
2022/06/26 00:28:38;;;;;;;10.27;2.63;;;26.60;93.90;;;;;;5062917;28;20013;-53
2022/06/26 00:31:05;;;;;;;10.50;2.30;;;26.60;93.80;;;;;;5063032;28;20025;-56
2022/06/26 00:33:31;;;;;;;10.45;2.03;;;26.60;93.80;;;;;;5063412;28;20305;-57
2022/06/26 00:35:58;;;;;;;6.97;1.48;;;26.60;93.70;;;;;;5060893;28;20021;-55
2022/06/26 00:38:24;;;;;;;3.88;1.70;;;26.60;93.70;;;;;;5063391;28;20054;-54
2022/06/26 00:40:51;;;;;;;4.15;1.50;;;26.60;93.70;;;;;;5062673;28;20035;-57
2022/06/26 00:43:17;;;;;;;4.53;1.83;;;26.60;93.60;;;;;;5062937;28;20067;-59
2022/06/26 00:45:44;;;;;;;2.47;1.30;;;26.60;93.70;;;;;;5062900;28;20033;-59
2022/06/26 00:48:10;;;;;;;4.95;1.50;;;26.60;93.80;;;;;;5062531;28;20021;-59
2022/06/26 00:50:37;;;;;;;6.32;2.00;;;26.50;93.80;;;;;;5062993;28;20100;-55
2022/06/26 00:53:05;;;;;;;7.13;1.90;;;26.50;94.00;;;;;;5063546;28;20040;-54
2022/06/26 00:55:33;;;;;;;7.30;1.60;;;26.50;94.10;;;;;;5062706;28;20089;-58
2022/06/26 00:58:00;;;;;;;6.20;1.17;;;26.50;94.30;;;;;;5062983;28;20025;-55
2022/06/26 01:00:27;;;;;;;5.93;1.48;;;26.40;94.40;;;;;;5062834;28;20051;-56
2022/06/26 01:02:54;;;;;;;5.28;1.38;;;26.40;94.50;;;;;;5062897;28;20032;-56
2022/06/26 01:05:20;;;;;;;5.72;1.40;;;26.40;94.60;;;;;;5063043;28;20324;-58
2022/06/26 01:07:47;;;;;;;4.78;1.27;;;26.40;94.60;;;;;;5062715;28;20339;-57
2022/06/26 01:10:14;;;;;;;3.78;1.10;;;26.40;94.70;;;;;;5063067;28;20036;-52
2022/06/26 01:12:41;;;;;;;5.05;1.17;;;26.40;94.70;;;;;;5062914;28;20029;-56
2022/06/26 01:15:09;;;;;;;9.23;1.40;;;26.40;94.70;;;;;;5063126;28;20032;-55
2022/06/26 01:17:36;;;;;;;9.05;1.45;;;26.40;94.60;;;;;;5062682;28;20028;-54
2022/06/26 01:20:06;;;;;;;6.85;1.30;;;26.40;94.60;;;;;;5063157;28;20040;-54
2022/06/26 01:22:33;;;;;;;2.88;0.90;;;26.40;94.50;;;;;;5065597;28;20048;-57
2022/06/26 01:24:59;;;;;;;3.10;1.15;;;26.30;94.50;;;;;;5064582;28;20025;-59
2022/06/26 01:27:26;;;;;;;9.88;1.42;;;26.30;94.60;;;;;;5066460;28;20236;-50
2022/06/26 01:29:53;;;;;;;4.75;1.15;;;26.40;94.50;;;;;;5066711;28;20340;-51
2022/06/26 01:32:19;;;;;;;3.85;1.13;;;26.40;94.40;;;;;;5066201;28;20032;-52
2022/06/26 01:34:46;;;;;;;2.85;1.00;;;26.40;94.30;;;;;;5066792;28;20312;-50
2022/06/26 01:37:12;;;;;;;2.55;0.95;;;26.40;94.20;;;;;;5066712;28;20066;-53
2022/06/26 01:39:39;;;;;;;2.70;0.75;;;26.50;94.20;;;;;;5066468;28;20303;-52
2022/06/26 01:42:06;;;;;;;5.05;0.80;;;26.50;94.20;;;;;;5064699;28;20226;-52
2022/06/26 01:44:32;;;;;;;4.55;0.80;;;26.50;94.20;;;;;;5064580;28;20060;-54
2022/06/26 01:46:59;;;;;;;1.95;0.60;;;26.50;94.00;;;;;;5064390;28;20028;-50
2022/06/26 01:49:26;;;;;;;3.15;0.70;;;26.50;93.90;;;;;;5063355;28;20067;-52
2022/06/26 01:51:53;;;;;;;2.28;0.70;;;26.50;93.90;;;;;;5064380;28;20469;-52
2022/06/26 01:54:20;;;;;;;1.85;0.80;;;26.50;93.90;;;;;;5064505;28;20025;-51
2022/06/26 01:56:47;;;;;;;3.95;0.57;;;26.50;93.90;;;;;;5064503;28;20021;-53
2022/06/26 01:59:14;;;;;;;2.10;0.70;;;26.50;93.90;;;;;;5064795;28;20316;-49
2022/06/26 02:01:40;;;;;;;2.50;0.80;;;26.50;93.90;;;;;;5065949;28;20045;-49
2022/06/26 02:04:07;;;;;;;2.10;0.70;;;26.50;93.80;;;;;;5066271;28;20045;-49
2022/06/26 02:06:34;;;;;;;2.50;0.65;;;26.50;93.80;;;;;;5065483;28;20095;-56
2022/06/26 02:09:00;;;;;;;3.85;1.10;;;26.50;93.80;;;;;;5066220;28;20028;-54
2022/06/26 02:14:12;;;;;;;1.55;0.90;;;26.50;93.80;;;;;;5066201;28;20031;-54
2022/06/26 02:16:39;;;;;;;3.33;1.13;;;26.50;93.90;;;;;;5065885;28;20021;-51
2022/06/26 02:19:05;;;;;;;2.15;0.68;;;26.50;93.90;;;;;;5066153;28;20020;-54
2022/06/26 02:21:33;;;;;;;3.28;0.93;;;26.50;93.80;;;;;;5066027;28;20075;-50
2022/06/26 02:24:00;;;;;;;2.00;0.75;;;26.40;93.90;;;;;;5066292;28;20048;-50
2022/06/26 02:26:27;;;;;;;1.80;0.80;;;26.50;93.90;;;;;;5065450;28;20213;-49
2022/06/26 02:28:53;;;;;;;3.50;0.70;;;26.50;93.90;;;;;;5065360;28;20317;-51
2022/06/26 02:31:20;;;;;;;0.98;0.38;;;26.40;93.90;;;;;;5065684;28;20039;-49
2022/06/26 02:33:46;;;;;;;2.25;0.60;;;26.50;93.90;;;;;;5065687;28;20050;-48
2022/06/26 02:36:13;;;;;;;1.00;0.43;;;26.50;93.90;;;;;;5065792;28;20032;-52
2022/06/26 02:38:40;;;;;;;1.88;0.70;;;26.50;93.90;;;;;;5065388;28;20092;-52
2022/06/26 02:41:06;;;;;;;2.13;0.80;;;26.40;93.90;;;;;;5065508;28;20031;-52
2022/06/26 02:43:34;;;;;;;2.15;0.85;;;26.40;93.90;;;;;;5065682;28;20036;-50
2022/06/26 02:46:00;;;;;;;2.33;0.80;;;26.40;93.90;;;;;;5065294;28;20017;-55
2022/06/26 02:48:27;;;;;;;3.15;0.60;;;26.40;94.00;;;;;;5065504;28;20025;-49
2022/06/26 02:50:54;;;;;;;5.35;0.60;;;26.40;94.00;;;;;;5065179;28;20020;-48
2022/06/26 02:53:20;;;;;;;1.95;0.45;;;26.40;94.00;;;;;;5065575;28;20032;-52
2022/06/26 02:55:47;;;;;;;5.43;0.68;;;26.40;94.00;;;;;;5065154;28;20056;-51
2022/06/26 02:58:14;;;;;;;2.05;0.40;;;26.40;94.00;;;;;;5065337;28;20055;-49
2022/06/26 03:00:41;;;;;;;1.90;0.40;;;26.40;93.90;;;;;;5065134;28;20068;-51
2022/06/26 03:03:07;;;;;;;2.25;0.52;;;26.40;93.90;;;;;;5065224;28;20032;-52
2022/06/26 03:05:34;;;;;;;1.52;0.40;;;26.40;94.00;;;;;;5065114;28;20336;-49
2022/06/26 03:08:00;;;;;;;1.98;0.70;;;26.40;94.00;;;;;;5065037;28;20044;-51
2022/06/26 03:10:28;;;;;;;4.65;1.10;;;26.40;94.00;;;;;;5065048;28;20103;-50
2022/06/26 03:12:55;;;;;;;3.40;1.40;;;26.40;93.90;;;;;;5064782;28;20036;-49
2022/06/26 03:15:21;;;;;;;4.30;2.78;;;26.40;93.90;;;;;;5064711;28;20055;-52
2022/06/26 03:17:48;;;;;;;4.05;3.58;;;26.40;93.90;;;;;;5064744;28;20051;-50
2022/06/26 03:20:18;;;;;;;4.68;2.75;;;26.40;93.90;;;;;;5065260;28;20025;-53
2022/06/26 03:22:45;;;;;;;4.13;1.98;;;26.40;93.90;;;;;;5065025;28;20013;-53
2022/06/26 03:25:12;;;;;;;3.05;1.67;;;26.40;93.90;;;;;;5064859;28;20031;-56
2022/06/26 03:27:39;;;;;;;1.67;1.20;;;26.40;93.90;;;;;;5064582;28;20025;-52
2022/06/26 03:30:07;;;;;;;2.03;1.10;;;26.30;93.90;;;;;;5064577;28;20020;-47
2022/06/26 03:32:34;;;;;;;4.25;1.38;;;26.30;93.90;;;;;;5065127;28;20217;-51
2022/06/26 03:35:01;;;;;;;2.08;1.00;;;26.40;93.90;;;;;;5064715;28;20031;-54
2022/06/26 03:37:28;;;;;;;1.90;0.82;;;26.40;93.90;;;;;;5064915;28;20028;-52
2022/06/26 03:39:55;;;;;;;2.08;0.90;;;26.30;93.80;;;;;;5064475;28;20070;-49
2022/06/26 03:42:21;;;;;;;1.20;0.60;;;26.30;93.80;;;;;;5065027;28;20099;-53
2022/06/26 03:44:48;;;;;;;1.60;0.60;;;26.30;94.00;;;;;;5064130;28;20024;-53
2022/06/26 03:47:14;;;;;;;3.05;0.57;;;26.30;93.90;;;;;;5064445;28;20037;-51
2022/06/26 03:49:41;;;;;;;2.28;0.77;;;26.30;93.90;;;;;;5064239;28;20247;-47
2022/06/26 03:52:08;;;;;;;4.05;0.73;;;26.30;93.90;;;;;;5055846;28;20020;-52
2022/06/26 03:54:35;;;;;;;2.38;0.80;;;26.30;93.80;;;;;;5061743;28;20240;-48
2022/06/26 03:57:02;;;;;;;2.10;0.65;;;26.30;93.90;;;;;;5062513;28;20201;-47
2022/06/26 03:59:28;;;;;;;1.92;0.80;;;26.40;93.90;;;;;;5043884;28;20024;-47
2022/06/26 04:01:55;;;;;;;2.45;0.80;;;26.40;93.90;;;;;;5043629;28;20042;-48
2022/06/26 04:04:21;;;;;;;4.30;1.77;;;26.40;93.90;;;;;;5061462;28;20017;-45
2022/06/26 04:06:48;;;;;;;3.53;1.20;;;26.40;93.90;;;;;;5063464;28;20033;-52
2022/06/26 04:09:15;;;;;;;4.28;1.30;;;26.40;93.90;;;;;;5061947;28;20096;-50
2022/06/26 04:11:41;;;;;;;3.38;0.90;;;26.40;93.90;;;;;;5063094;28;20096;-52
2022/06/26 04:14:08;;;;;;;3.47;1.08;;;26.30;93.90;;;;;;5063075;28;20028;-47
2022/06/26 04:16:34;;;;;;;3.22;1.40;;;26.30;94.00;;;;;;5062567;28;20017;-47
2022/06/26 04:19:01;;;;;;;3.22;1.10;;;26.40;94.00;;;;;;5063234;28;20041;-52
2022/06/26 04:21:27;;;;;;;3.88;0.82;;;26.30;94.00;;;;;;5062786;28;20025;-48
2022/06/26 04:23:54;;;;;;;4.75;1.10;;;26.30;94.10;;;;;;5054399;28;20029;-47
2022/06/26 04:26:20;;;;;;;2.67;1.00;;;26.30;94.10;;;;;;5043316;28;20381;-48
2022/06/26 04:28:47;;;;;;;1.70;0.57;;;26.30;94.40;;;;;;5044023;28;20035;-49
2022/06/26 04:31:14;;;;;;;5.95;0.90;;;26.30;94.20;;;;;;5043516;28;20120;-47
2022/06/26 04:33:40;;;;;;;3.20;1.08;;;26.30;94.20;;;;;;5043850;28;20021;-48
2022/06/26 04:36:07;;;;;;;3.65;1.38;;;26.30;94.20;;;;;;5043618;28;20022;-48
2022/06/26 04:38:33;;;;;;;3.28;1.90;;;26.30;94.30;;;;;;5043833;28;20017;-47
2022/06/26 04:41:31;;;;;;;3.53;2.25;;;26.30;94.20;;;;;;5043128;28;20100;-47
2022/06/26 04:43:46;;;;;;;2.25;1.70;;;26.30;94.30;;;;;;5043934;28;20025;-49
2022/06/26 04:46:13;;;;;;;4.13;1.95;;;26.30;94.20;;;;;;5043359;28;20021;-47
2022/06/26 04:48:41;;;;;;;3.83;1.90;;;26.30;94.20;;;;;;5043758;28;20025;-47
2022/06/26 04:51:08;;;;;;;3.83;1.70;;;26.30;94.20;;;;;;5043407;28;20024;-48
2022/06/26 04:53:34;;;;;;;5.00;1.30;;;26.20;94.20;;;;;;5043514;28;20293;-47
2022/06/26 04:56:01;;;;;;;2.42;1.10;;;26.20;94.20;;;;;;5044716;28;20017;-54
2022/06/26 04:58:27;;;;;;;3.03;0.77;;;26.30;94.30;;;;;;5047414;28;20063;-47
2022/06/26 05:00:54;;;;;;;2.53;0.60;;;26.20;94.30;;;;;;5046876;28;20288;-47
2022/06/26 05:03:20;;;;;;;1.45;0.60;;;26.30;94.40;;;;;;5047323;28;20210;-49
2022/06/26 05:05:47;;;;;;;2.10;0.68;;;26.20;94.40;;;;;;5047033;28;20021;-47
2022/06/26 05:08:13;;;;;;;2.63;0.60;;;26.20;94.40;;;;;;5046846;28;20025;-49
2022/06/26 05:10:40;;;;;;;2.47;0.50;;;26.20;94.50;;;;;;5046857;28;20222;-49
2022/06/26 05:13:06;;;;;;;2.95;0.40;;;26.20;94.50;;;;;;5047139;28;20075;-49
2022/06/26 05:15:33;;;;;;;0.77;0.30;;;26.20;94.50;;;;;;5049854;28;20029;-49
2022/06/26 05:17:59;;;;;;;0.93;0.40;;;26.20;94.40;;;;;;5054946;28;20017;-47
2022/06/26 05:20:26;;;;;;;3.70;0.32;;;26.20;94.40;;;;;;5046768;28;20025;-47
2022/06/26 05:22:52;;;;;;;3.53;0.38;;;26.20;94.40;;;;;;5046807;28;20299;-49
2022/06/26 05:25:19;;;;;;;2.33;0.40;;;26.20;94.40;;;;;;5046363;28;20075;-47
2022/06/26 05:27:46;;;;;;;2.80;0.30;;;26.20;94.30;;;;;;5046772;28;20021;-50
2022/06/26 05:30:12;;;;;;;1.77;0.40;;;26.10;94.20;;;;;;5049030;28;20090;-55
2022/06/26 05:32:39;;;;;;;1.10;0.30;;;26.20;94.30;;;;;;5054975;28;20026;-54
2022/06/26 05:35:06;;;;;;;3.70;0.40;;;26.10;94.30;;;;;;5046216;28;20029;-52
2022/06/26 05:37:32;;;;;;;2.83;0.57;;;26.10;94.20;;;;;;5046220;28;20025;-50
2022/06/26 05:39:59;;;;;;;1.05;0.30;;;26.10;94.20;;;;;;5046364;28;20033;-48
2022/06/26 05:42:25;;;;;;;3.25;0.40;;;26.10;94.20;;;;;;5046104;28;20017;-51
2022/06/26 05:44:52;;;;;;;3.35;0.50;;;26.10;94.30;;;;;;5046072;28;20313;-53
2022/06/26 05:47:18;;;;;;;1.20;0.30;;;26.10;94.30;;;;;;5045908;28;20032;-50
2022/06/26 05:49:45;;;;;;;1.42;0.28;;;26.10;94.30;;;;;;5045949;28;20244;-47
2022/06/26 05:52:11;;;;;;;1.85;0.20;;;26.10;94.40;;;;;;5046335;28;20017;-46
2022/06/26 05:54:38;;;;;;;1.98;0.40;;;26.10;94.50;;;;;;5045964;28;20081;-47
2022/06/26 05:57:05;;;;;;;1.95;0.30;;;26.10;94.50;;;;;;5046217;28;20237;-50
2022/06/26 05:59:31;;;;;;;6.63;0.63;;;26.10;94.50;;;;;;5046005;28;20021;-48
2022/06/26 06:01:58;;;;;;;1.23;0.28;;;26.10;94.40;;;;;;5045723;28;20060;-54
2022/06/26 06:04:24;;;;;;;1.67;0.40;;;26.10;94.40;;;;;;5046445;28;20036;-52
2022/06/26 06:06:51;;;;;;;2.00;0.57;;;26.10;94.40;;;;;;5045525;28;20025;-56
2022/06/26 06:09:17;;;;;;;3.92;0.30;;;26.10;94.40;;;;;;5046134;28;20029;-52
2022/06/26 06:11:44;;;;;;;2.30;0.43;;;26.10;94.40;;;;;;5045975;28;20090;-51
2022/06/26 06:14:11;;;;;;;3.20;0.30;;;26.10;94.40;;;;;;5046167;28;20024;-52
2022/06/26 06:16:37;;;;;;;3.10;0.35;;;26.10;94.40;;;;;;5045632;28;20056;-55
2022/06/26 06:19:04;;;;;;;1.00;0.22;;;26.00;94.40;;;;;;5046113;28;20198;-53
2022/06/26 06:21:30;;;;;;;3.08;0.30;;;26.00;94.40;;;;;;5045656;28;20060;-54
2022/06/26 06:23:57;;;;;;;5.57;0.40;;;26.00;94.50;;;;;;5045894;28;20052;-53
2022/06/26 06:26:25;;;;;;;2.13;0.22;;;26.00;94.50;;;;;;5045652;28;20048;-51
2022/06/26 06:28:51;;;;;;;3.90;0.30;;;26.00;94.50;;;;;;5045557;28;20022;-50
2022/06/26 06:31:18;;;;;;;3.35;0.30;;;26.10;94.60;;;;;;5045466;28;20217;-52
2022/06/26 06:33:45;;;;;;;2.55;0.43;;;26.00;94.60;;;;;;5045713;28;20021;-50
2022/06/26 06:36:11;;;;;;;1.25;0.30;;;26.00;94.60;;;;;;5045342;28;20083;-49
2022/06/26 06:38:38;;;;;;;3.13;0.57;;;26.00;94.60;;;;;;5045623;28;20313;-51
2022/06/26 06:41:05;;;;;;;3.42;0.43;;;26.00;94.70;;;;;;5045331;28;20084;-50
2022/06/26 06:43:31;;;;;;;2.65;0.40;;;26.00;94.70;;;;;;5045588;28;20047;-53
2022/06/26 06:45:58;;;;;;;2.63;0.30;;;26.00;94.60;;;;;;5045172;28;20088;-53
2022/06/26 06:48:24;;;;;;;2.25;0.30;;;26.00;94.70;;;;;;5045885;28;20297;-54
2022/06/26 06:50:54;;;;;;;2.03;0.50;;;26.00;94.70;;;;;;5045020;28;20286;-51
2022/06/26 06:53:21;;;;;;;4.38;0.43;;;26.00;94.60;;;;;;5044925;28;20199;-53
2022/06/26 06:55:48;;;;;;;2.25;0.40;;;26.00;94.60;;;;;;5044903;28;20036;-52
2022/06/26 06:58:14;;;;;;;1.95;0.40;;;26.00;94.70;;;;;;5045735;28;20092;-52
2022/06/26 07:00:41;;;;;;;1.65;0.30;;;25.90;94.60;;;;;;5055759;28;20056;-48
2022/06/26 07:03:07;;;;;;;1.98;0.50;;;26.00;94.60;;;;;;5047547;28;20381;-51
2022/06/26 07:05:34;;;;;;;2.65;0.30;;;26.00;94.60;;;;;;5045016;28;20041;-49
2022/06/26 07:08:01;;;;;;;1.48;0.30;;;26.00;94.60;;;;;;5045060;28;20033;-49
2022/06/26 07:10:28;;;;;;;2.78;0.50;;;26.00;94.60;;;;;;5056421;28;20045;-56
2022/06/26 07:12:56;;;;;;;2.15;0.40;;;25.90;94.40;;;;;;5064867;28;20128;-48
2022/06/26 07:15:24;;;;;;;1.73;0.30;;;25.90;94.50;;;;;;5064539;28;20032;-47
2022/06/26 07:17:50;;;;;;;3.88;0.47;;;25.90;94.50;;;;;;5064825;28;20084;-51
2022/06/26 07:20:17;;;;;;;1.10;0.32;;;25.90;94.40;;;;;;5063565;28;20021;-50
2022/06/26 07:22:44;;;;;;;2.85;0.32;;;25.90;94.40;;;;;;5064702;28;20051;-55
2022/06/26 07:25:11;;;;;;;3.47;0.28;;;25.90;94.40;;;;;;5064317;28;20340;-51
2022/06/26 07:27:37;;;;;;;3.08;0.40;;;25.90;94.50;;;;;;5064667;28;20056;-57
2022/06/26 07:30:04;;;;;;;1.38;0.30;;;25.90;94.40;;;;;;5064336;28;20025;-48
2022/06/26 07:32:31;;;;;;;4.30;0.40;;;25.90;94.50;;;;;;5064286;28;20062;-54
2022/06/26 07:34:58;;;;;;;4.72;0.40;;;26.00;94.40;;;;;;5064696;28;20208;-51
2022/06/26 07:37:25;;;;;;;2.50;0.35;;;25.90;94.40;;;;;;5063025;28;20087;-48
2022/06/26 07:39:51;;;;;;;1.42;0.30;;;25.90;94.40;;;;;;5064172;28;20024;-47
2022/06/26 07:42:18;;;;;;;1.25;0.20;;;25.90;94.70;;;;;;5064470;28;20025;-47
2022/06/26 07:44:44;;;;;;;2.65;0.30;;;25.90;94.50;;;;;;5064530;28;20025;-48
2022/06/26 07:47:11;;;;;;;3.20;0.35;;;25.90;94.60;;;;;;5063828;28;20021;-51
2022/06/26 07:49:38;;;;;;;1.63;0.22;;;25.90;94.60;;;;;;5064291;28;20056;-49
2022/06/26 07:52:04;;;;;;;1.65;0.30;;;25.90;94.60;;;;;;5064248;28;20222;-54
2022/06/26 07:54:31;;;;;;;1.98;0.20;;;25.90;94.60;;;;;;5063988;28;20033;-52
2022/06/26 07:56:58;;;;;;;1.63;0.20;;;25.90;94.70;;;;;;5063948;28;20027;-54
2022/06/26 07:59:25;;;;;;;6.75;0.30;;;25.90;94.70;;;;;;5064393;28;20020;-51
2022/06/26 08:01:52;;;;;;;0.90;0.30;;;25.90;94.70;;;;;;5063686;28;20049;-53
2022/06/26 08:04:18;;;;;;;2.08;0.20;;;25.90;94.60;;;;;;5064339;28;20031;-48
2022/06/26 08:06:45;;;;;;;1.98;0.20;;;25.90;94.70;;;;;;5063888;28;20209;-51
2022/06/26 08:09:11;;;;;;;2.08;0.40;;;25.90;94.70;;;;;;5064222;28;20021;-53
2022/06/26 08:11:38;;;;;;;2.20;0.30;;;25.90;94.70;;;;;;5063884;28;20032;-48
2022/06/26 08:14:04;;;;;;;1.65;0.30;;;25.90;94.70;;;;;;5064141;28;20029;-51
2022/06/26 08:16:31;;;;;;;5.68;0.32;;;25.90;94.70;;;;;;5063755;28;20051;-46
2022/06/26 08:18:58;;;;;;;3.38;0.40;;;25.90;94.70;;;;;;5064118;28;20058;-51
2022/06/26 08:24:09;;;;;;;1.40;0.30;;;25.90;94.70;;;;;;5063591;28;20029;-53
2022/06/26 08:26:36;;;;;;;3.65;0.30;;;25.80;94.70;;;;;;5064098;28;20067;-49
2022/06/26 08:29:02;;;;;;;1.15;0.30;;;25.80;94.70;;;;;;5064060;28;20028;-48
2022/06/26 08:31:29;;;;;;;3.67;0.40;;;25.80;94.70;;;;;;5066379;28;20066;-52
2022/06/26 08:33:56;;;;;;;1.67;0.25;;;25.90;94.80;;;;;;5068107;28;20324;-49
2022/06/26 08:36:22;;;;;;;2.95;0.30;;;25.80;94.70;;;;;;5067590;28;20084;-51
2022/06/26 08:38:49;;;;;;;2.97;0.30;;;25.80;94.70;;;;;;5068356;28;20020;-47
2022/06/26 08:41:16;;;;;;;1.70;0.30;;;25.80;94.70;;;;;;5067521;28;20194;-54
2022/06/26 08:43:43;;;;;;;3.22;0.50;;;25.80;94.70;;;;;;5067902;28;20084;-51
2022/06/26 08:46:10;;;;;;;1.23;0.20;;;25.80;94.70;;;;;;5067435;28;20025;-54
2022/06/26 08:48:43;;;;;;;2.67;0.20;;;25.80;94.70;;;;;;5067787;28;20025;-47
2022/06/26 08:51:11;;;;;;;2.65;0.30;;;25.80;94.70;;;;;;5067266;28;20025;-50
2022/06/26 08:53:38;;;;;;;0.90;0.30;;;25.80;94.70;;;;;;5067555;28;20033;-51
2022/06/26 08:56:05;;;;;;;1.70;0.30;;;25.80;94.80;;;;;;5067438;28;20025;-46
2022/06/26 08:58:32;;;;;;;2.80;0.45;;;25.80;94.80;;;;;;5067660;28;20088;-49
2022/06/26 09:00:59;;;;;;;4.60;0.40;;;25.80;94.70;;;;;;5067271;28;20405;-49
2022/06/26 09:03:25;;;;;;;2.92;0.20;;;25.80;94.80;;;;;;5067451;28;20039;-52
2022/06/26 09:05:52;;;;;;;1.70;0.30;;;25.80;94.80;;;;;;5067126;28;20021;-52
2022/06/26 09:08:20;;;;;;;2.65;0.20;;;25.80;94.70;;;;;;5067129;28;20029;-50
2022/06/26 09:10:49;;;;;;;2.67;0.38;;;25.80;94.80;;;;;;5066899;28;20021;-45
2022/06/26 09:13:16;;;;;;;1.08;0.25;;;25.80;94.70;;;;;;5067193;28;20324;-49
2022/06/26 09:15:43;;;;;;;2.30;0.50;;;25.70;94.70;;;;;;5067203;28;20280;-50
2022/06/26 09:18:12;;;;;;;1.63;0.82;;;25.70;94.70;;;;;;5067029;28;20147;-47
2022/06/26 09:20:52;;;;;;;4.72;0.93;;;25.80;94.70;;;;;;5066720;28;20049;-46
2022/06/26 09:23:18;;;;;;;3.55;1.30;;;25.80;94.70;;;;;;5066908;28;20035;-45
2022/06/26 09:25:46;;;;;;;4.32;1.30;;;25.70;94.60;;;;;;5066905;28;20036;-46
2022/06/26 09:28:18;;;;;;;2.65;1.17;;;25.70;94.60;;;;;;5066899;28;20028;-50
2022/06/26 09:31:02;;;;;;;4.05;1.02;;;25.70;94.60;;;;;;5066634;28;20035;-47
2022/06/26 09:33:36;;;;;;;1.63;0.80;;;25.80;94.60;;;;;;5066776;28;20020;-51
2022/06/26 09:36:05;;;;;;;2.78;0.70;;;25.80;94.60;;;;;;5066989;28;20216;-46
2022/06/26 09:38:33;;;;;;;3.75;0.77;;;25.70;94.60;;;;;;5066832;28;20070;-49
2022/06/26 09:41:02;;;;;;;3.65;0.70;;;25.70;94.60;;;;;;5066608;28;20033;-47
2022/06/26 09:43:30;;;;;;;0.95;0.50;;;25.70;94.60;;;;;;5065728;28;20289;-51
2022/06/26 09:45:59;;;;;;;5.05;0.75;;;25.70;94.80;;;;;;5066266;28;20028;-46
2022/06/26 09:48:27;;;;;;;2.63;0.68;;;25.70;94.70;;;;;;5066482;28;20029;-48
2022/06/26 09:50:55;;;;;;;5.80;1.17;;;25.70;94.70;;;;;;5066090;28;20228;-51
2022/06/26 09:53:23;;;;;;;3.42;1.23;;;25.70;94.80;;;;;;5066765;28;20029;-53
2022/06/26 09:55:51;;;;;;;3.88;1.40;;;25.70;94.80;;;;;;5066190;28;20029;-53
2022/06/26 09:58:18;;;;;;;3.50;1.17;;;25.70;94.90;;;;;;5066880;28;20058;-50
2022/06/26 10:06:25;;;;;;;4.40;1.27;;;25.70;95.00;;;;;;5066400;28;20067;-46
2022/06/26 10:08:54;;;;;;;3.50;1.00;;;25.70;95.10;;;;;;5065979;28;20317;-50
2022/06/26 10:11:27;;;;;;;7.00;1.27;;;25.70;95.10;;;;;;5065700;28;20029;-45
2022/06/26 10:14:14;;;;;;;6.30;0.88;;;25.70;95.10;;;;;;5066314;28;20028;-45
2022/06/26 10:17:17;;;;;;;5.90;0.98;;;25.70;95.20;;;;;;5065086;28;20028;-48
2022/06/26 10:19:45;;;;;;;3.75;0.80;;;25.70;95.20;;;;;;5065555;28;20055;-45
2022/06/26 10:22:15;;;;;;;4.65;1.00;;;25.70;95.20;;;;;;5065590;28;20017;-48
2022/06/26 10:24:53;;;;;;;4.22;1.20;;;25.70;95.30;;;;;;5065639;28;20033;-48
2022/06/26 10:27:25;;;;;;;5.88;1.30;;;25.70;95.30;;;;;;5065463;28;20032;-48
2022/06/26 10:30:10;;;;;;;7.10;1.10;;;25.70;95.40;;;;;;5065485;28;20092;-45
2022/06/26 10:32:37;;;;;;;4.72;0.77;;;25.70;95.40;;;;;;5065364;28;20270;-53
2022/06/26 10:35:05;;;;;;;4.53;0.70;;;25.70;95.40;;;;;;5065271;28;20032;-52
2022/06/26 10:37:43;;;;;;;4.53;0.50;;;25.70;95.40;;;;;;5065258;28;20017;-45
2022/06/26 10:40:13;;;;;;;8.73;0.70;;;25.70;95.40;;;;;;5065486;28;20045;-49
2022/06/26 10:42:54;;;;;;;5.63;0.90;;;25.70;95.40;;;;;;5065341;28;20039;-52
2022/06/26 10:45:31;;;;;;;5.93;0.60;;;25.70;95.40;;;;;;5065408;28;20056;-50
2022/06/26 10:48:07;;;;;;;2.83;0.80;;;25.70;95.50;;;;;;5065494;28;20028;-46
2022/06/26 10:50:39;;;;;;;5.75;0.93;;;25.70;95.50;;;;;;5065177;28;20032;-46
2022/06/26 10:53:23;;;;;;;7.55;0.73;;;25.70;95.50;;;;;;5065259;28;20328;-47
2022/06/26 10:55:51;;;;;;;13.73;1.08;;;25.70;95.40;;;;;;5065082;28;20033;-48
2022/06/26 10:58:24;;;;;;;5.15;0.70;;;25.70;95.40;;;;;;5065321;28;20025;-47
2022/06/26 11:00:52;;;;;;;5.03;0.60;;;25.70;95.50;;;;;;5064830;28;20053;-50
2022/06/26 11:03:19;;;;;;;5.07;0.65;;;25.70;95.50;;;;;;5065069;28;20032;-47
2022/06/26 11:06:04;;;;;;;4.07;0.75;;;25.70;95.50;;;;;;5064828;28;20021;-45
2022/06/26 11:08:39;;;;;;;6.57;1.08;;;25.70;95.60;;;;;;5065154;28;20087;-44
2022/06/26 11:11:08;;;;;;;8.60;1.00;;;25.70;95.60;;;;;;5064733;28;20033;-46
2022/06/26 11:13:48;;;;;;;5.00;0.73;;;25.70;95.60;;;;;;5065239;28;20032;-47
2022/06/26 11:16:14;;;;;;;6.93;0.80;;;25.70;95.70;;;;;;5064405;28;20036;-48
2022/06/26 11:18:41;;;;;;;6.72;0.80;;;25.70;95.80;;;;;;5064957;28;20048;-50
2022/06/26 11:21:08;;;;;;;2.65;0.52;;;25.70;95.70;;;;;;5064714;28;20016;-46
2022/06/26 11:23:36;;;;;;;4.40;0.80;;;25.70;95.70;;;;;;5064966;28;20021;-44
2022/06/26 11:26:07;;;;;;;4.57;0.85;;;25.70;95.60;;;;;;5064440;28;20025;-47
2022/06/26 11:28:40;;;;;;;6.05;0.80;;;25.70;95.60;;;;;;5064681;28;20182;-48
2022/06/26 11:31:08;;;;;;;;;;;25.70;95.60;;;;;;5064782;28;20088;-45
2022/06/26 11:33:37;;;;;;;4.35;0.77;;;25.70;95.50;;;;;;5064588;28;19904;-49
2022/06/26 11:36:12;;;;;;;3.22;0.60;;;25.70;95.50;;;;;;5064225;28;20035;-48
2022/06/26 11:38:39;;;;;;;3.58;1.10;;;25.70;95.50;;;;;;5064026;28;20021;-53
2022/06/26 11:41:08;;;;;;;8.43;1.65;;;25.70;95.50;;;;;;5064282;28;20025;-46
2022/06/26 11:43:35;;;;;;;6.20;0.80;;;25.70;95.40;;;;;;5064669;28;20198;-46
2022/06/26 11:46:03;;;;;;;4.05;0.70;;;25.70;95.30;;;;;;5063983;28;20087;-45
2022/06/26 11:48:30;;;;;;;3.03;0.70;;;25.70;95.20;;;;;;5064501;28;20029;-46
2022/06/26 11:50:58;;;;;;;3.15;0.85;;;25.70;95.20;;;;;;5063950;28;20032;-48
2022/06/26 11:53:27;;;;;;;5.85;0.88;;;25.70;95.10;;;;;;5064346;28;20029;-53
2022/06/26 11:56:00;;;;;;;4.90;1.00;;;25.70;95.10;;;;;;5063922;28;20325;-46
2022/06/26 11:58:28;;;;;;;;;;;25.70;95.10;;;;;;5064589;28;20044;-46
2022/06/26 12:01:13;;;;;;;5.25;1.48;;;25.70;95.00;;;;;;5063712;28;19912;-53
2022/06/26 12:03:51;;;;;;;4.07;1.20;;;25.70;95.00;;;;;;5064209;28;20327;-51
2022/06/26 12:06:28;;;;;;;5.55;1.40;;;25.70;94.90;;;;;;5063496;28;20019;-50
2022/06/26 12:08:56;;;;;;;3.92;1.08;;;25.70;94.90;;;;;;5064338;28;20071;-45
2022/06/26 12:11:24;;;;;;;4.63;1.17;;;25.70;94.90;;;;;;5063725;28;20313;-48
2022/06/26 12:13:51;;;;;;;5.90;1.00;;;25.70;94.90;;;;;;5064089;28;20024;-48
2022/06/26 12:16:21;;;;;;;4.97;0.95;;;25.80;95.00;;;;;;5064137;28;20017;-47
2022/06/26 12:18:49;;;;;;;3.65;1.10;;;25.80;95.00;;;;;;5064025;28;20037;-47
2022/06/26 12:21:21;;;;;;;3.60;1.00;;;25.80;94.90;;;;;;5063643;28;20028;-47
2022/06/26 12:23:49;;;;;;;5.77;1.23;;;25.80;94.90;;;;;;5064009;28;20031;-47
2022/06/26 12:26:19;;;;;;;5.95;1.45;;;25.80;94.90;;;;;;5063635;28;20033;-50
2022/06/26 12:28:48;;;;;;;3.58;0.90;;;25.80;94.90;;;;;;5063977;28;20096;-47
2022/06/26 12:31:15;;;;;;;4.45;1.00;;;25.80;94.90;;;;;;5063423;28;20040;-48
2022/06/26 12:33:42;;;;;;;2.55;0.65;;;25.90;94.80;;;;;;5063931;28;20092;-55
2022/06/26 12:36:08;;;;;;;6.85;1.58;;;25.80;94.70;;;;;;5063477;28;20217;-51
2022/06/26 12:38:36;;;;;;;2.95;0.70;;;25.80;94.70;;;;;;5063724;28;20036;-58
2022/06/26 12:41:04;;;;;;;4.43;0.70;;;25.90;94.70;;;;;;5063694;28;20321;-54
2022/06/26 12:43:31;;;;;;;3.65;0.70;;;25.90;94.60;;;;;;5063908;28;20076;-48
2022/06/26 12:45:58;;;;;;;4.50;0.77;;;25.90;94.60;;;;;;5063364;28;20078;-54
2022/06/26 12:48:24;;;;;;;2.45;0.73;;;25.90;94.60;;;;;;5063780;28;20134;-48
2022/06/26 12:50:51;;;;;;;6.30;0.90;;;25.90;94.70;;;;;;5063347;28;20025;-49
2022/06/26 12:53:18;;;;;;;2.45;0.70;;;25.90;94.60;;;;;;5063210;28;20025;-51
2022/06/26 12:55:44;;;;;;;4.25;0.70;;;25.90;94.60;;;;;;5062952;28;20348;-50
2022/06/26 12:58:11;;;;;;;4.47;1.00;;;25.90;94.60;;;;;;5063857;28;20025;-47
2022/06/26 13:00:38;;;;;;;2.58;1.17;;;25.90;94.60;;;;;;5063195;28;20329;-53
2022/06/26 13:03:04;;;;;;;2.70;1.10;;;25.90;94.60;;;;;;5063482;28;20037;-54